Time;durP1;ratioP1;P1;durP2;ratioP2;P2;SDS_P1;SDS_P2;PMS_P1;PMS_P2;Temp;Humidity;BMP_temperature;BMP_pressure;BME280_temperature;BME280_humidity;BME280_pressure;Samples;Min_cycle;Max_cycle;Signal;HPM_P1;HPM_P2
2023/08/18 00:01:22;;;;;;;13.63;10.70;;;;;;;17.06;100.00;101763.41;4915850;29;20067;-80
2023/08/18 00:03:47;;;;;;;14.00;11.80;;;;;;;17.08;100.00;101775.41;4915856;29;20099;-79
2023/08/18 00:06:13;;;;;;;13.55;11.13;;;;;;;17.00;100.00;101763.88;4916138;29;20056;-79
2023/08/18 00:08:38;;;;;;;13.32;11.18;;;;;;;17.06;100.00;101768.63;4916186;29;20027;-79
2023/08/18 00:11:04;;;;;;;13.07;11.55;;;;;;;16.87;100.00;101743.09;4915957;29;20515;-78
2023/08/18 00:13:29;;;;;;;13.10;11.75;;;;;;;16.92;100.00;101754.84;4899108;29;20083;-79
2023/08/18 00:15:54;;;;;;;12.80;11.35;;;;;;;16.98;100.00;101766.59;4915846;29;20032;-80
2023/08/18 00:18:20;;;;;;;13.15;11.18;;;;;;;17.00;100.00;101771.69;4915892;29;20119;-79
2023/08/18 00:20:45;;;;;;;13.00;11.57;;;;;;;16.88;100.00;101750.78;4915732;29;20470;-78
2023/08/18 00:23:11;;;;;;;13.35;11.95;;;;;;;16.97;100.00;101764.09;4916047;29;20355;-78
2023/08/18 00:25:36;;;;;;;14.18;11.52;;;;;;;16.92;100.00;101756.63;4915771;29;20123;-78
2023/08/18 00:28:02;;;;;;;12.70;11.38;;;;;;;16.93;100.00;101758.28;4915869;29;20111;-78
2023/08/18 00:30:27;;;;;;;13.00;11.63;;;;;;;16.92;100.00;101751.41;4898668;29;20021;-78
2023/08/18 00:32:53;;;;;;;12.90;11.30;;;;;;;16.92;100.00;101754.03;4916437;29;20091;-79
2023/08/18 00:35:18;;;;;;;13.48;11.73;;;;;;;16.88;100.00;101750.78;4919089;29;20060;-78
2023/08/18 00:37:44;;;;;;;13.93;12.27;;;;;;;16.93;100.00;101755.69;4919194;29;20067;-78
2023/08/18 00:40:10;;;;;;;14.88;12.10;;;;;;;16.87;100.00;101745.69;4919108;29;20465;-79
2023/08/18 00:42:36;;;;;;;12.43;11.10;;;;;;;16.78;100.00;101741.16;4919013;29;20475;-79
2023/08/18 00:45:01;;;;;;;14.20;11.77;;;;;;;16.71;100.00;101737.34;4918933;29;20076;-79
2023/08/18 00:47:27;;;;;;;14.70;12.10;;;;;;;16.71;100.00;101737.34;4918784;29;20084;-79
2023/08/18 00:49:54;;;;;;;13.70;12.27;;;;;;;16.71;100.00;101742.56;4918854;29;20031;-78
2023/08/18 00:52:20;;;;;;;15.13;12.32;;;;;;;16.80;100.00;101753.13;4918693;29;20095;-79
2023/08/18 00:54:48;;;;;;;13.50;11.02;;;;;;;16.78;100.00;101755.03;4918961;29;20032;-77
2023/08/18 00:57:14;;;;;;;12.60;11.27;;;;;;;16.78;100.00;101746.38;4918930;29;20024;-79
2023/08/18 00:59:39;;;;;;;13.73;11.85;;;;;;;16.75;100.00;101741.41;4918701;29;20024;-79
2023/08/18 01:02:05;;;;;;;12.50;11.23;;;;;;;16.76;100.00;101749.09;4917321;29;20773;-79
2023/08/18 01:04:33;;;;;;;14.30;11.75;;;;;;;16.59;100.00;101731.22;4918452;29;20036;-79
2023/08/18 01:06:59;;;;;;;13.65;11.43;;;;;;;16.61;100.00;101737.16;4918603;29;20483;-79
2023/08/18 01:09:25;;;;;;;12.70;10.65;;;;;;;16.67;100.00;101741.94;4918619;29;20059;-79
2023/08/18 01:12:11;;;;;;;12.65;11.00;;;;;;;16.68;100.00;101738.41;4918582;29;20032;-79
2023/08/18 01:14:59;;;;;;;14.20;11.73;;;;;;;16.60;100.00;101727.69;4918400;29;20071;-79
2023/08/18 01:17:34;;;;;;;12.02;10.82;;;;;;;16.64;100.00;101734.34;4918142;29;20100;-79
2023/08/18 01:20:00;;;;;;;17.77;13.00;;;;;;;16.72;100.00;101746.84;4918478;29;20113;-79
2023/08/18 01:22:26;;;;;;;13.32;11.30;;;;;;;16.55;100.00;101719.38;4918384;29;20020;-79
2023/08/18 01:24:58;;;;;;;12.60;10.73;;;;;;;16.57;100.00;101720.09;4918231;29;20048;-79
2023/08/18 01:27:24;;;;;;;13.20;11.02;;;;;;;16.59;100.00;101726.84;4918171;29;20374;-79
2023/08/18 01:29:49;;;;;;;13.63;11.10;;;;;;;16.59;100.00;101724.25;4900858;29;20036;-79
2023/08/18 01:32:16;;;;;;;13.88;10.55;;;;;;;16.66;100.00;101727.22;4900758;29;20079;-79
2023/08/18 01:34:43;;;;;;;12.80;11.18;;;;;;;16.63;100.00;101728.31;4918128;29;20032;-79
2023/08/18 01:37:11;;;;;;;12.70;10.85;;;;;;;16.60;100.00;101718.06;4918036;29;20478;-79
2023/08/18 01:39:37;;;;;;;13.45;10.68;;;;;;;16.63;100.00;101728.31;4918098;29;20096;-79
2023/08/18 01:42:02;;;;;;;12.02;10.50;;;;;;;16.61;100.00;101727.56;4917998;29;20072;-79
2023/08/18 01:44:28;;;;;;;13.82;11.07;;;;;;;16.49;100.00;101701.56;4917895;29;20103;-79
2023/08/18 01:46:53;;;;;;;12.13;10.60;;;;;;;16.55;100.00;101711.56;4917893;29;20024;-79
2023/08/18 01:49:20;;;;;;;12.95;11.55;;;;;;;16.53;100.00;101706.47;4917676;29;20031;-79
2023/08/18 01:51:46;;;;;;;13.40;11.02;;;;;;;16.51;100.00;101703.09;4916312;29;20036;-79
2023/08/18 01:54:11;;;;;;;12.88;10.70;;;;;;;16.44;100.00;101699.31;4917887;29;20028;-79
2023/08/18 01:56:36;;;;;;;13.27;11.55;;;;;;;16.51;100.00;101710.09;4916117;29;20212;-79
2023/08/18 01:59:04;;;;;;;12.68;11.02;;;;;;;16.54;100.00;101709.91;4917788;29;20035;-79
2023/08/18 02:01:29;;;;;;;14.00;11.82;;;;;;;16.43;100.00;101692.44;4917494;29;20024;-79
2023/08/18 02:03:54;;;;;;;16.10;12.90;;;;;;;16.30;100.00;101671.63;4917426;29;20027;-79
2023/08/18 02:06:20;;;;;;;13.80;12.40;;;;;;;16.47;100.00;101698.25;4917525;29;20028;-79
2023/08/18 02:08:45;;;;;;;13.73;12.23;;;;;;;16.41;100.00;101706.50;4917587;29;20055;-79
2023/08/18 02:11:10;;;;;;;14.60;12.63;;;;;;;16.40;100.00;101710.91;4917521;29;20467;-79
2023/08/18 02:13:35;;;;;;;16.13;12.35;;;;;;;16.38;100.00;101715.41;4917344;29;20036;-78
2023/08/18 02:16:01;;;;;;;13.35;11.95;;;;;;;16.32;100.00;101700.19;4917401;29;20024;-79
2023/08/18 02:18:26;;;;;;;15.35;13.32;;;;;;;16.34;100.00;101714.81;4916980;29;20046;-79
2023/08/18 02:21:02;;;;;;;14.20;12.68;;;;;;;16.35;100.00;101710.41;4917346;29;20024;-79
2023/08/18 02:23:28;;;;;;;14.60;12.93;;;;;;;16.19;100.00;101689.00;4916865;29;20029;-79
2023/08/18 02:26:05;;;;;;;14.65;12.55;;;;;;;16.15;100.00;101679.75;4917375;29;20028;-79
2023/08/18 02:28:31;;;;;;;14.65;12.63;;;;;;;16.29;100.00;101706.47;4917217;29;20028;-79
2023/08/18 02:31:02;;;;;;;14.82;13.23;;;;;;;16.26;100.00;101703.25;4917004;29;20029;-80
2023/08/18 02:33:31;;;;;;;;;;;;;;;16.29;100.00;101696.03;4917518;29;20087;-79
2023/08/18 02:35:58;;;;;;;14.40;12.43;;;;;;;16.25;100.00;101685.97;4917217;29;19943;-80
2023/08/18 02:38:24;;;;;;;14.90;13.23;;;;;;;16.23;100.00;101677.44;4917093;29;20390;-80
2023/08/18 02:40:50;;;;;;;15.57;12.63;;;;;;;16.19;100.00;101682.03;4917055;29;20032;-79
2023/08/18 02:43:15;;;;;;;15.45;12.60;;;;;;;16.23;100.00;101693.06;4917424;29;20032;-80
2023/08/18 02:45:40;;;;;;;15.77;13.60;;;;;;;16.12;100.00;101672.97;4916567;29;20036;-80
2023/08/18 02:48:06;;;;;;;15.38;13.68;;;;;;;16.13;100.00;101669.47;4916904;29;20032;-80
2023/08/18 02:50:31;;;;;;;16.58;13.52;;;;;;;16.06;100.00;101660.41;4916603;29;20491;-79
2023/08/18 02:53:00;;;;;;;15.45;13.80;;;;;;;16.26;100.00;101687.63;4916892;29;20482;-80
2023/08/18 02:55:27;;;;;;;14.63;12.98;;;;;;;16.25;100.00;101678.16;4900049;29;20032;-80
2023/08/18 02:57:52;;;;;;;14.45;12.60;;;;;;;16.24;100.00;101686.91;4916762;29;20163;-79
2023/08/18 03:00:18;;;;;;;13.60;12.18;;;;;;;16.27;100.00;101689.28;4916594;29;20111;-79
2023/08/18 03:02:43;;;;;;;15.70;13.18;;;;;;;16.29;100.00;101690.84;4916902;29;20031;-79
2023/08/18 03:05:09;;;;;;;17.60;12.90;;;;;;;16.26;100.00;101679.81;4916414;29;20172;-80
2023/08/18 03:07:34;;;;;;;15.63;13.25;;;;;;;16.22;100.00;101676.59;4916639;29;20485;-80
2023/08/18 03:09:59;;;;;;;13.93;12.45;;;;;;;16.25;100.00;101670.34;4916515;29;20038;-79
2023/08/18 03:12:25;;;;;;;16.13;13.32;;;;;;;16.18;100.00;101663.91;4916484;29;20028;-79
2023/08/18 03:14:51;;;;;;;16.10;13.15;;;;;;;16.24;100.00;101681.72;4916482;29;20020;-79
2023/08/18 03:17:16;;;;;;;14.27;12.77;;;;;;;16.24;100.00;101684.31;4916508;29;20393;-80
2023/08/18 03:19:41;;;;;;;14.63;13.13;;;;;;;16.16;100.00;101674.44;4916248;29;20024;-79
2023/08/18 03:22:07;;;;;;;14.65;13.13;;;;;;;16.16;100.00;101678.81;4916503;29;20032;-80
2023/08/18 03:24:33;;;;;;;15.45;13.85;;;;;;;16.19;100.00;101684.63;4916261;29;20055;-80
2023/08/18 03:26:58;;;;;;;14.80;13.07;;;;;;;16.06;100.00;101660.41;4915292;29;20067;-80
2023/08/18 03:29:23;;;;;;;15.43;13.82;;;;;;;16.09;100.00;101662.78;4915093;29;20505;-79
2023/08/18 03:31:49;;;;;;;15.93;14.27;;;;;;;16.11;100.00;101686.13;4916151;29;20060;-79
2023/08/18 03:34:14;;;;;;;15.95;13.93;;;;;;;16.09;100.00;101685.41;4916215;29;20497;-79
2023/08/18 03:36:39;;;;;;;15.93;14.32;;;;;;;16.08;100.00;101686.34;4916372;29;20510;-78
2023/08/18 03:39:05;;;;;;;16.17;13.57;;;;;;;16.03;100.00;101679.72;4899179;29;20028;-80
2023/08/18 03:41:31;;;;;;;16.98;14.18;;;;;;;15.54;100.00;101601.66;4923581;23;20056;-79
2023/08/18 03:43:57;;;;;;;15.85;13.85;;;;;;;16.00;100.00;101671.28;4916360;29;20470;-80
2023/08/18 03:46:25;;;;;;;16.00;14.30;;;;;;;15.88;100.00;101651.31;4915076;29;20501;-79
2023/08/18 03:48:51;;;;;;;15.73;14.00;;;;;;;15.85;100.00;101657.59;4916472;29;20044;-79
2023/08/18 03:51:17;;;;;;;16.17;14.48;;;;;;;15.93;100.00;101673.50;4916223;29;20024;-79
2023/08/18 03:53:43;;;;;;;15.55;13.45;;;;;;;15.91;100.00;101682.34;4899099;29;20493;-79
2023/08/18 03:56:09;;;;;;;15.98;14.00;;;;;;;15.89;100.00;101684.25;4916336;29;20028;-78
2023/08/18 03:58:34;;;;;;;16.75;14.43;;;;;;;15.79;100.00;101671.03;4916430;29;20025;-78
2023/08/18 04:01:08;;;;;;;16.45;14.43;;;;;;;15.90;100.00;101685.91;4916233;29;20126;-79
2023/08/18 04:03:35;;;;;;;16.35;14.30;;;;;;;15.88;100.00;101688.63;4916033;29;20028;-79
2023/08/18 04:06:01;;;;;;;17.33;14.60;;;;;;;15.87;100.00;101684.34;4915885;29;20050;-79
2023/08/18 04:08:26;;;;;;;17.13;14.18;;;;;;;15.82;100.00;101680.41;4917948;29;20028;-78
2023/08/18 04:10:51;;;;;;;16.48;14.73;;;;;;;15.75;100.00;101673.06;4919052;29;20047;-78
2023/08/18 04:13:17;;;;;;;15.82;14.07;;;;;;;15.69;100.00;101660.47;4919859;29;20028;-77
2023/08/18 04:15:42;;;;;;;15.85;14.18;;;;;;;15.77;100.00;101681.56;4919538;29;20028;-78
2023/08/18 04:18:07;;;;;;;17.10;14.80;;;;;;;15.77;100.00;101675.53;4919188;29;20087;-77
2023/08/18 04:20:33;;;;;;;17.48;14.63;;;;;;;15.78;100.00;101675.44;4919534;29;20394;-78
2023/08/18 04:22:58;;;;;;;16.85;15.07;;;;;;;15.77;100.00;101671.16;4919441;29;20063;-78
2023/08/18 04:25:23;;;;;;;18.25;14.40;;;;;;;15.62;100.00;101659.22;4919366;29;20115;-76
2023/08/18 04:27:49;;;;;;;16.52;14.68;;;;;;;15.66;100.00;101662.47;4919253;29;20039;-78
2023/08/18 04:30:14;;;;;;;16.38;14.43;;;;;;;15.63;100.00;101658.31;4919324;29;20024;-77
2023/08/18 04:32:41;;;;;;;18.08;15.18;;;;;;;15.74;100.00;101667.97;4919284;29;20051;-77
2023/08/18 04:35:06;;;;;;;16.90;13.70;;;;;;;15.74;100.00;101639.31;4919256;29;20379;-79
2023/08/18 04:37:32;;;;;;;11.77;9.90;;;;;;;16.12;100.00;101659.13;4919146;29;20028;-78
2023/08/18 04:39:57;;;;;;;17.77;15.10;;;;;;;16.05;100.00;101654.38;4919042;29;20095;-78
2023/08/18 04:42:22;;;;;;;13.50;12.02;;;;;;;15.95;100.00;101616.09;4901536;29;20506;-79
2023/08/18 04:44:48;;;;;;;12.68;9.73;;;;;;;16.39;100.00;101661.47;4919083;29;20035;-80
2023/08/18 04:47:13;;;;;;;16.17;12.93;;;;;;;16.45;100.00;101669.69;4901908;29;20032;-79
2023/08/18 04:49:38;;;;;;;16.85;14.60;;;;;;;16.49;100.00;101671.13;4918755;29;20427;-79
2023/08/18 04:52:05;;;;;;;16.27;13.52;;;;;;;16.42;100.00;101662.09;4918646;29;20032;-79
2023/08/18 04:54:31;;;;;;;17.17;14.60;;;;;;;16.47;100.00;101667.78;4918998;29;20071;-79
2023/08/18 04:57:01;;;;;;;19.05;14.82;;;;;;;16.22;100.00;101621.88;4918967;29;20118;-79
2023/08/18 04:59:26;;;;;;;15.48;12.45;;;;;;;16.50;100.00;101653.69;4917204;29;20456;-77
2023/08/18 05:01:52;;;;;;;16.02;12.93;;;;;;;16.64;100.00;101663.94;4918813;29;20058;-77
2023/08/18 05:04:18;;;;;;;17.85;14.82;;;;;;;16.58;100.00;101675.66;4901502;29;20036;-78
2023/08/18 05:06:44;;;;;;;12.95;10.50;;;;;;;16.62;100.00;101664.06;4918393;29;20028;-80
2023/08/18 05:09:09;;;;;;;12.48;10.98;;;;;;;16.64;100.00;101663.94;4918818;29;20040;-82
2023/08/18 05:11:34;;;;;;;18.20;14.90;;;;;;;16.73;100.00;101684.13;4918644;29;20115;-79
2023/08/18 05:14:00;;;;;;;14.65;9.02;;;;;;;16.91;100.00;101674.06;4918566;29;20111;-80
2023/08/18 05:16:25;;;;;;;14.88;12.63;;;;;;;16.78;100.00;101658.53;4918435;29;20124;-80
2023/08/18 05:18:51;;;;;;;19.50;14.93;;;;;;;16.74;100.00;101654.50;4917957;29;20088;-82
2023/08/18 05:21:16;;;;;;;13.95;10.88;;;;;;;16.86;100.00;101630.09;4918271;29;20509;-81
2023/08/18 05:23:41;;;;;;;17.27;13.80;;;;;;;17.15;100.00;101677.41;4918369;29;20029;-81
2023/08/18 05:26:07;;;;;;;16.92;14.63;;;;;;;17.03;100.00;101660.09;4918402;29;20036;-79
2023/08/18 05:28:32;;;;;;;17.52;14.60;;;;;;;16.84;100.00;101644.19;4918166;29;20379;-80
2023/08/18 05:30:58;;;;;;;17.80;13.45;;;;;;;16.81;100.00;101641.81;4918096;29;20397;-80
2023/08/18 05:33:24;;;;;;;18.02;15.52;;;;;;;16.86;100.00;101658.78;4918156;29;20096;-81
2023/08/18 05:35:52;;;;;;;17.85;15.65;;;;;;;16.76;100.00;101650.00;4917993;29;20107;-81
2023/08/18 05:38:17;;;;;;;19.05;15.68;;;;;;;16.66;100.00;101653.38;4918375;29;20083;-81
2023/08/18 05:40:45;;;;;;;20.92;16.25;;;;;;;16.58;100.00;101649.56;4917959;29;20569;-81
2023/08/18 05:43:12;;;;;;;20.63;16.73;;;;;;;16.61;100.00;101666.75;4918023;29;20047;-81
2023/08/18 05:45:38;;;;;;;19.05;15.85;;;;;;;16.51;100.00;101648.34;4917887;29;20470;-81
2023/08/18 05:48:22;;;;;;;21.08;16.92;;;;;;;16.62;100.00;101661.44;4926100;23;20056;-81
2023/08/18 05:50:47;;;;;;;21.88;17.70;;;;;;;16.11;100.00;101593.16;4917861;29;20043;-78
2023/08/18 05:53:20;;;;;;;22.80;17.67;;;;;;;16.10;100.00;101591.50;4917651;29;20044;-79
2023/08/18 05:55:46;;;;;;;20.38;17.00;;;;;;;16.54;100.00;101662.97;4917980;29;20036;-79
2023/08/18 05:58:12;;;;;;;21.58;16.90;;;;;;;16.59;100.00;101666.03;4917791;29;20024;-79
2023/08/18 06:00:37;;;;;;;20.52;16.27;;;;;;;16.37;100.00;101624.28;4917865;29;20376;-79
2023/08/18 06:03:03;;;;;;;21.30;16.80;;;;;;;16.62;100.00;101676.25;4917642;29;20106;-78
2023/08/18 06:05:28;;;;;;;21.10;16.40;;;;;;;16.68;100.00;101659.31;4917740;29;20036;-79
2023/08/18 06:07:55;;;;;;;22.20;16.63;;;;;;;16.79;100.00;101669.78;4917616;29;20035;-78
2023/08/18 06:10:20;;;;;;;21.90;17.27;;;;;;;16.84;100.00;101665.91;4917964;29;20035;-78
2023/08/18 06:12:46;;;;;;;19.75;17.05;;;;;;;16.66;100.00;101641.16;4917504;29;20040;-79
2023/08/18 06:15:12;;;;;;;20.15;17.30;;;;;;;16.70;100.00;101662.66;4917485;29;20043;-79
2023/08/18 06:17:37;;;;;;;23.27;17.85;;;;;;;16.66;100.00;101663.81;4917538;29;20028;-79
2023/08/18 06:20:05;;;;;;;20.63;18.02;;;;;;;16.64;100.00;101669.97;4915631;29;20512;-79
2023/08/18 06:22:30;;;;;;;21.73;17.52;;;;;;;16.66;100.00;101671.63;4917023;29;20028;-79
2023/08/18 06:24:56;;;;;;;21.75;17.75;;;;;;;16.72;100.00;101668.63;4917178;29;20029;-78
2023/08/18 06:27:21;;;;;;;22.95;17.38;;;;;;;16.59;100.00;101653.84;4916905;29;20036;-78
2023/08/18 06:32:22;;;;;;;19.58;16.92;;;;;;;15.80;100.00;101511.25;5223953;23;20067;-79
2023/08/18 06:36:08;;;;;;;22.52;18.17;;;;;;;16.91;100.00;101669.72;4917028;29;20059;-79
2023/08/18 06:38:33;;;;;;;22.33;17.25;;;;;;;15.92;100.00;101517.31;4916777;29;20044;-79
2023/08/18 06:46:11;;;;;;;20.65;18.10;;;;;;;16.87;100.00;101660.44;5148114;23;20497;-79
2023/08/18 06:48:37;;;;;;;20.85;17.92;;;;;;;16.74;100.00;101632.81;4916902;29;20036;-79
2023/08/18 06:51:02;;;;;;;22.17;18.58;;;;;;;16.93;100.00;101661.75;4916714;29;20058;-79
2023/08/18 06:53:27;;;;;;;22.38;18.27;;;;;;;16.97;100.00;101651.91;4916780;29;20059;-79
2023/08/18 06:55:55;;;;;;;22.85;18.00;;;;;;;17.01;100.00;101656.78;4916866;29;20051;-78
2023/08/18 06:58:21;;;;;;;22.85;17.80;;;;;;;17.07;100.00;101658.06;4916712;29;20020;-79
2023/08/18 07:00:46;;;;;;;20.35;16.95;;;;;;;17.07;100.00;101645.03;4917027;29;20034;-79
2023/08/18 07:03:12;;;;;;;21.55;18.30;;;;;;;17.16;100.00;101652.16;4916487;29;20035;-79
2023/08/18 07:05:37;;;;;;;21.42;17.63;;;;;;;17.24;100.00;101652.38;4916480;29;20052;-78
2023/08/18 07:08:03;;;;;;;22.00;18.02;;;;;;;17.27;100.00;101657.38;4899031;29;20042;-79
2023/08/18 07:10:31;;;;;;;24.92;17.52;;;;;;;16.86;100.00;101593.56;4964835;23;20123;-79
2023/08/18 07:12:57;;;;;;;22.20;18.10;;;;;;;16.33;100.00;101483.75;4916638;29;20036;-78
2023/08/18 07:15:30;;;;;;;21.33;17.67;;;;;;;16.23;100.00;101456.75;4916429;29;20038;-79
2023/08/18 07:17:56;;;;;;;20.83;17.58;;;;;;;17.31;100.00;101637.09;4915114;29;20070;-78
2023/08/18 07:20:31;;;;;;;23.05;19.10;;;;;;;16.32;100.00;101466.47;4916515;29;20056;-79
2023/08/18 07:22:57;;;;;;;21.50;17.35;;;;;;;17.43;100.00;101634.34;4929309;23;20108;-79
2023/08/18 07:25:22;;;;;;;21.92;19.08;;;;;;;17.57;100.00;101646.28;4916385;29;20028;-78
2023/08/18 07:27:48;;;;;;;24.00;19.00;;;;;;;17.34;100.00;101613.34;4916412;29;20028;-79
2023/08/18 07:30:29;;;;;;;22.20;19.60;;;;;;;17.09;100.00;101565.66;4969928;23;20052;-79
2023/08/18 07:32:55;;;;;;;;;;;;;;;17.75;100.00;101657.91;4916785;29;20095;-78
2023/08/18 07:35:21;;;;;;;23.45;19.38;;;;;;;17.66;100.00;101639.50;4916377;29;19922;-78
2023/08/18 07:37:47;;;;;;;24.52;18.98;;;;;;;17.84;100.00;101650.28;5048259;23;20061;-79
2023/08/18 07:40:12;;;;;;;22.30;19.25;;;;;;;17.71;100.00;101626.94;4916028;29;20024;-78
2023/08/18 07:42:39;;;;;;;23.40;18.92;;;;;;;17.86;100.00;101643.16;4918492;29;20039;-79
2023/08/18 07:45:06;;;;;;;26.00;19.35;;;;;;;17.86;100.00;101641.38;4920092;29;20042;-78
2023/08/18 07:47:31;;;;;;;22.92;19.70;;;;;;;17.81;100.00;101630.47;4920047;29;20020;-76
2023/08/18 07:49:56;;;;;;;23.98;19.20;;;;;;;17.98;100.00;101644.78;4903112;29;20047;-78
2023/08/18 07:52:22;;;;;;;24.50;19.70;;;;;;;17.87;100.00;101648.25;4919946;29;20176;-78
2023/08/18 07:54:47;;;;;;;25.75;19.63;;;;;;;17.72;100.00;101631.22;4919937;29;20056;-78
2023/08/18 07:57:12;;;;;;;23.08;19.63;;;;;;;17.85;100.00;101655.41;4920041;29;20083;-78
2023/08/18 07:59:38;;;;;;;23.70;18.88;;;;;;;17.86;100.00;101643.16;4920075;29;20020;-79
2023/08/18 08:02:03;;;;;;;24.23;19.98;;;;;;;17.92;100.00;101646.13;4919921;29;20040;-78
2023/08/18 08:04:29;;;;;;;25.90;20.45;;;;;;;17.78;100.00;101628.09;4919835;29;20545;-77
2023/08/18 08:06:56;;;;;;;23.77;19.40;;;;;;;17.95;100.00;101656.31;4919718;29;20043;-78
2023/08/18 08:09:24;;;;;;;25.02;20.17;;;;;;;17.98;100.00;101665.69;4919647;29;20028;-78
2023/08/18 08:11:50;;;;;;;23.55;19.33;;;;;;;17.88;100.00;101644.69;4919834;29;20398;-78
2023/08/18 08:14:15;;;;;;;23.65;20.50;;;;;;;18.01;100.00;101655.81;4919850;29;20060;-78
2023/08/18 08:16:41;;;;;;;23.50;19.70;;;;;;;18.12;100.00;101654.13;4919727;29;20172;-78
2023/08/18 08:19:06;;;;;;;25.00;19.55;;;;;;;18.13;100.00;101656.59;4919480;29;20039;-78
2023/08/18 08:21:32;;;;;;;22.02;18.63;;;;;;;18.26;100.00;101667.69;4902547;29;20036;-77
2023/08/18 08:23:57;;;;;;;24.40;19.00;;;;;;;18.13;100.00;101648.75;4919214;29;20034;-78
2023/08/18 08:26:23;;;;;;;22.65;18.38;;;;;;;18.18;100.00;101659.66;4919336;29;20119;-78
2023/08/18 08:28:48;;;;;;;21.98;19.02;;;;;;;18.25;100.00;101662.59;4919514;29;20028;-78
2023/08/18 08:31:13;;;;;;;23.02;18.63;;;;;;;18.34;100.00;101661.84;4919204;29;21915;-78
2023/08/18 08:33:39;;;;;;;22.08;18.00;;;;;;;18.33;100.00;101631.44;4919249;29;20076;-78
2023/08/18 08:36:05;;;;;;;24.00;19.63;;;;;;;18.54;100.00;101670.66;4919214;29;20028;-78
2023/08/18 08:38:30;;;;;;;23.35;19.40;;;;;;;18.61;100.00;101670.03;4918918;29;20055;-79
2023/08/18 08:40:58;;;;;;;22.52;18.98;;;;;;;18.72;100.00;101677.00;4919378;29;20040;-78
2023/08/18 08:43:24;;;;;;;23.67;19.67;;;;;;;18.63;100.00;101649.78;4918896;29;20028;-78
2023/08/18 08:45:52;;;;;;;23.70;19.45;;;;;;;18.86;100.00;101684.50;4919267;29;20390;-77
2023/08/18 08:48:18;;;;;;;22.20;18.67;;;;;;;19.06;100.00;101692.47;4918947;29;20028;-79
2023/08/18 08:50:49;;;;;;;24.27;17.85;;;;;;;19.20;100.00;101695.59;4918981;29;20040;-77
2023/08/18 08:53:22;;;;;;;20.50;18.30;;;;;;;19.25;100.00;101696.97;4917662;23;20084;-77
2023/08/18 08:55:50;;;;;;;20.13;17.25;;;;;;;19.26;100.00;101681.13;4918903;29;20024;-78
2023/08/18 08:58:16;;;;;;;19.05;16.77;;;;;;;19.27;100.00;101676.72;4918748;29;20032;-79
2023/08/18 09:00:42;;;;;;;19.85;17.15;;;;;;;19.41;100.00;101692.06;4918797;29;20512;-78
2023/08/18 09:03:07;;;;;;;20.60;17.58;;;;;;;19.40;100.00;101682.56;4918746;29;20084;-79
2023/08/18 09:05:33;;;;;;;20.02;17.40;;;;;;;19.50;100.00;101683.41;5228917;23;20540;-78
2023/08/18 09:07:59;;;;;;;22.10;18.33;;;;;;;19.65;100.00;101699.59;4918756;29;20059;-79
2023/08/18 09:10:26;;;;;;;20.60;17.33;;;;;;;19.84;100.00;101699.66;4918395;29;20028;-79
2023/08/18 09:12:52;;;;;;;20.15;17.05;;;;;;;19.87;100.00;101695.94;4918593;29;20520;-78
2023/08/18 09:15:17;;;;;;;23.17;18.10;;;;;;;19.84;100.00;101697.03;4918383;29;20036;-77
2023/08/18 09:17:46;;;;;;;22.13;17.55;;;;;;;19.89;100.00;101701.88;4918577;29;20434;-78
2023/08/18 09:20:14;;;;;;;21.83;18.45;;;;;;;19.83;100.00;101687.50;4901486;29;20024;-78
2023/08/18 09:22:40;;;;;;;25.25;19.20;;;;;;;19.74;100.00;101696.19;4918223;29;20020;-77
2023/08/18 09:25:14;;;;;;;24.30;19.90;;;;;;;19.57;100.00;101691.63;4917986;29;20032;-76
2023/08/18 09:27:39;;;;;;;21.02;18.50;;;;;;;19.46;100.00;101677.59;4918227;29;20115;-77
2023/08/18 09:30:05;;;;;;;23.80;18.42;;;;;;;19.39;100.00;101691.38;4918236;29;20068;-76
2023/08/18 09:32:31;;;;;;;22.85;19.02;;;;;;;19.20;100.00;101664.16;4918165;29;20122;-78
2023/08/18 09:34:56;;;;;;;22.67;18.70;;;;;;;19.30;100.00;101679.91;4918138;29;20088;-78
2023/08/18 09:37:29;;;;;;;23.20;18.75;;;;;;;19.33;100.00;101677.00;5022798;23;20083;-78
2023/08/18 09:39:54;;;;;;;23.00;19.55;;;;;;;19.44;100.00;101679.53;4917894;29;20032;-79
2023/08/18 09:42:19;;;;;;;23.98;19.70;;;;;;;19.47;100.00;101650.47;4917822;29;20075;-78
2023/08/18 09:44:45;;;;;;;25.10;20.42;;;;;;;19.83;100.00;101661.31;4918161;29;20025;-78
2023/08/18 09:47:13;;;;;;;25.38;20.70;;;;;;;19.99;100.00;101679.13;4917935;29;20029;-79
2023/08/18 09:49:40;;;;;;;28.17;22.30;;;;;;;19.74;100.00;101676.03;4924464;23;20533;-78
2023/08/18 09:52:08;;;;;;;28.08;21.77;;;;;;;19.62;100.00;101673.69;4917807;29;20031;-78
2023/08/18 09:54:45;;;;;;;27.20;22.20;;;;;;;19.66;100.00;101675.88;4917837;29;20056;-78
2023/08/18 09:57:21;;;;;;;30.20;22.85;;;;;;;19.51;100.00;101653.63;4917768;29;20079;-78
2023/08/18 09:59:55;;;;;;;26.85;22.75;;;;;;;19.79;100.00;101664.34;4917687;29;20032;-78
2023/08/18 10:02:26;;;;;;;26.02;22.05;;;;;;;20.02;100.00;101668.34;4917861;29;20032;-78
2023/08/18 10:04:52;;;;;;;24.98;20.98;;;;;;;20.11;100.00;101635.22;4917819;29;20152;-84
2023/08/18 10:07:18;;;;;;;25.77;21.70;;;;;;;20.40;98.88;101661.44;4917588;29;20542;-81
2023/08/18 10:09:45;;;;;;;27.02;22.48;;;;;;;20.32;99.91;101673.44;4917523;29;20110;-79
2023/08/18 10:12:11;;;;;;;29.08;23.20;;;;;;;20.26;98.29;101678.44;4917316;29;20083;-80
2023/08/18 10:14:37;;;;;;;26.02;22.73;;;;;;;20.31;99.29;101665.72;4917194;29;20427;-77
2023/08/18 10:17:04;;;;;;;26.05;23.23;;;;;;;20.53;98.13;101652.31;4917293;29;20363;-79
2023/08/18 10:19:51;;;;;;;22.08;18.00;;;;;;;21.00;97.09;101662.84;4917863;29;20020;-80
2023/08/18 10:22:17;;;;;;;25.65;22.35;;;;;;;21.11;94.69;101656.56;4917314;29;20051;-79
2023/08/18 10:24:46;;;;;;;23.25;19.88;;;;;;;20.92;94.59;101639.91;4917155;29;20024;-79
2023/08/18 10:27:27;;;;;;;22.38;16.50;;;;;;;21.09;96.38;101658.50;4917220;29;20055;-80
2023/08/18 10:30:18;;;;;;;16.02;13.82;;;;;;;21.44;96.45;101649.94;4917306;29;20098;-80
2023/08/18 10:32:43;;;;;;;17.25;14.30;;;;;;;21.75;91.50;101611.81;4912636;29;20040;-79
2023/08/18 10:35:21;;;;;;;15.25;13.32;;;;;;;22.21;91.78;101638.03;4916939;29;20044;-81
2023/08/18 10:38:05;;;;;;;23.63;21.13;;;;;;;22.19;90.46;101634.72;4931884;29;20466;-79
2023/08/18 10:40:36;;;;;;;20.33;15.95;;;;;;;22.05;90.35;101631.66;4915306;29;20036;-78
2023/08/18 10:43:02;;;;;;;13.02;11.20;;;;;;;22.42;88.93;101633.28;4917390;29;20107;-81
2023/08/18 10:45:29;;;;;;;21.73;18.95;;;;;;;22.21;87.80;101632.78;4917059;29;20053;-81
2023/08/18 10:47:59;;;;;;;22.73;20.00;;;;;;;22.11;88.08;101627.59;4916914;29;20036;-82
2023/08/18 10:52:56;;;;;;;22.88;20.00;;;;;;;21.88;88.81;101566.72;4989105;23;20087;-78
2023/08/18 10:55:25;;;;;;;20.38;18.20;;;;;;;21.46;88.93;101514.81;4916712;29;20042;-80
2023/08/18 10:57:52;;;;;;;15.32;13.05;;;;;;;22.59;88.60;101623.66;4916491;29;20028;-81
2023/08/18 11:00:18;;;;;;;17.90;16.08;;;;;;;22.94;86.03;101595.56;4916608;29;20036;-78
2023/08/18 11:02:50;;;;;;;19.98;17.88;;;;;;;23.26;85.10;101627.28;4916515;29;20030;-80
2023/08/18 11:05:21;;;;;;;20.48;18.38;;;;;;;22.99;84.72;101609.91;4916505;29;20028;-80
2023/08/18 11:07:47;;;;;;;19.48;17.27;;;;;;;22.97;85.57;101609.22;4916556;29;20036;-80
2023/08/18 11:10:47;;;;;;;18.67;16.63;;;;;;;22.41;88.59;101501.81;4922874;23;20564;-80
2023/08/18 11:13:23;;;;;;;20.27;18.17;;;;;;;22.99;86.33;101606.44;4839167;29;20058;-81